Time;durP1;ratioP1;P1;durP2;ratioP2;P2;SDS_P1;SDS_P2;PMS_P1;PMS_P2;Temp;Humidity;BMP_temperature;BMP_pressure;BME280_temperature;BME280_humidity;BME280_pressure;Samples;Min_cycle;Max_cycle;Signal;HPM_P1;HPM_P2
2024/01/01 00:02:42;;;;;;;34.67;16.40;;;;;;;;;;5838442;28;20049;-80
2024/01/01 00:05:34;;;;;;;65.43;22.77;;;;;;;;;;5838548;28;20365;-80
2024/01/01 00:08:24;;;;;;;19.52;13.15;;;;;;;;;;5838824;28;20112;-80
2024/01/01 00:11:15;;;;;;;25.23;13.35;;;;;;;;;;5838342;28;20050;-80
2024/01/01 00:14:06;;;;;;;24.13;10.60;;;;;;;;;;5838526;28;20049;-80
2024/01/01 00:16:57;;;;;;;61.63;28.65;;;;;;;;;;5838812;28;20049;-80
2024/01/01 00:19:51;;;;;;;42.80;20.25;;;;;;;;;;5841169;28;20053;-80
2024/01/01 00:22:44;;;;;;;51.10;23.88;;;;;;;;;;5841894;28;20049;-80
2024/01/01 00:25:36;;;;;;;39.55;15.77;;;;;;;;;;5841852;28;20096;-80
2024/01/01 00:28:27;;;;;;;35.05;14.55;;;;;;;;;;5842140;28;20570;-81
2024/01/01 00:31:18;;;;;;;35.67;12.35;;;;;;;;;;5844065;28;20053;-80
2024/01/01 00:34:08;;;;;;;23.20;13.30;;;;;;;;;;5841873;28;20066;-80
2024/01/01 00:36:59;;;;;;;34.15;12.80;;;;;;;;;;5842582;28;20057;-80
2024/01/01 00:39:50;;;;;;;27.67;11.25;;;;;;;;;;5841670;28;20038;-80
2024/01/01 00:42:47;;;;;;;17.13;9.32;;;;;;;;;;5842497;28;20254;-80
2024/01/01 00:45:37;;;;;;;20.35;10.02;;;;;;;;;;5841185;28;20038;-80
2024/01/01 00:48:38;;;;;;;19.33;11.27;;;;;;;;;;5827027;28;20053;-80
2024/01/01 00:51:29;;;;;;;24.70;12.27;;;;;;;;;;5841573;28;20045;-80
2024/01/01 00:54:20;;;;;;;75.80;36.70;;;;;;;;;;5857743;28;20054;-80
2024/01/01 00:57:11;;;;;;;45.15;17.15;;;;;;;;;;5841012;28;20057;-80
2024/01/01 01:00:02;;;;;;;24.20;13.07;;;;;;;;;;5842617;28;20057;-79
2024/01/01 01:02:53;;;;;;;22.67;9.77;;;;;;;;;;5835841;28;20420;-81
2024/01/01 01:05:44;;;;;;;16.98;10.55;;;;;;;;;;5840378;28;20065;-80
2024/01/01 01:08:35;;;;;;;19.15;8.77;;;;;;;;;;5841817;28;20053;-81
2024/01/01 01:11:25;;;;;;;22.10;12.82;;;;;;;;;;5840444;28;20053;-81
2024/01/01 01:14:16;;;;;;;15.55;10.77;;;;;;;;;;5841104;28;20053;-81
2024/01/01 01:17:08;;;;;;;33.05;16.10;;;;;;;;;;5840660;28;20053;-80
2024/01/01 01:19:58;;;;;;;21.95;11.18;;;;;;;;;;5856947;28;20052;-80
2024/01/01 01:22:49;;;;;;;19.73;12.00;;;;;;;;;;5856869;28;20046;-81
2024/01/01 01:25:41;;;;;;;28.30;12.23;;;;;;;;;;5823918;28;20048;-80
2024/01/01 01:28:32;;;;;;;22.98;11.98;;;;;;;;;;5840300;28;20053;-81
2024/01/01 01:31:23;;;;;;;34.42;14.68;;;;;;;;;;5838945;28;20045;-80
2024/01/01 01:34:14;;;;;;;20.95;9.63;;;;;;;;;;5842178;28;20050;-80
2024/01/01 01:37:05;;;;;;;20.13;11.13;;;;;;;;;;5841244;28;20064;-80
2024/01/01 01:39:55;;;;;;;25.83;11.50;;;;;;;;;;5842126;28;20096;-80
2024/01/01 01:42:47;;;;;;;13.85;8.65;;;;;;;;;;5841146;28;20042;-81
2024/01/01 01:45:38;;;;;;;20.25;9.82;;;;;;;;;;5840813;28;20407;-80
2024/01/01 01:48:29;;;;;;;13.60;10.55;;;;;;;;;;5839412;28;20048;-80
2024/01/01 01:51:20;;;;;;;23.10;12.82;;;;;;;;;;5839720;28;21505;-81
2024/01/01 01:54:12;;;;;;;18.63;10.73;;;;;;;;;;5839543;28;20150;-80
2024/01/01 01:57:06;;;;;;;25.77;11.85;;;;;;;;;;5839546;28;20054;-80
2024/01/01 01:59:58;;;;;;;18.30;10.20;;;;;;;;;;5839753;28;20057;-81
2024/01/01 02:02:49;;;;;;;20.80;10.18;;;;;;;;;;5839547;28;20169;-81
2024/01/01 02:05:40;;;;;;;15.38;9.88;;;;;;;;;;5855566;28;20060;-81
2024/01/01 02:08:32;;;;;;;22.85;10.48;;;;;;;;;;5839247;28;20420;-80
2024/01/01 02:11:23;;;;;;;16.90;11.07;;;;;;;;;;5839096;28;20412;-81
2024/01/01 02:14:15;;;;;;;45.10;13.88;;;;;;;;;;5839344;28;20499;-80
2024/01/01 02:17:06;;;;;;;18.63;11.48;;;;;;;;;;5839065;28;20065;-80
2024/01/01 02:19:57;;;;;;;24.13;7.15;;;;;;;;;;5839604;28;20050;-81
2024/01/01 02:22:56;;;;;;;25.65;9.43;;;;;;;;;;5839321;28;20045;-80
2024/01/01 02:25:48;;;;;;;61.13;21.58;;;;;;;;;;5838982;28;20042;-81
2024/01/01 02:28:38;;;;;;;39.28;15.45;;;;;;;;;;5840056;28;20041;-81
2024/01/01 02:31:29;;;;;;;33.38;15.70;;;;;;;;;;5838701;28;20053;-80
2024/01/01 02:34:22;;;;;;;36.95;13.48;;;;;;;;;;5854980;28;20099;-80
2024/01/01 02:37:12;;;;;;;25.23;13.25;;;;;;;;;;5838657;28;20057;-80
2024/01/01 02:40:05;;;;;;;18.27;9.05;;;;;;;;;;5838695;28;20427;-80
2024/01/01 02:42:56;;;;;;;13.65;7.10;;;;;;;;;;5838909;28;20046;-80
2024/01/01 02:45:47;;;;;;;21.88;7.68;;;;;;;;;;5838370;28;20053;-80
2024/01/01 02:48:38;;;;;;;14.93;8.15;;;;;;;;;;5839769;28;20049;-80
2024/01/01 02:51:28;;;;;;;17.50;7.85;;;;;;;;;;5838336;28;20451;-80
2024/01/01 02:54:19;;;;;;;15.15;6.47;;;;;;;;;;5838703;28;20419;-80
2024/01/01 02:57:12;;;;;;;10.63;6.95;;;;;;;;;;5822024;28;20066;-80
2024/01/01 03:00:04;;;;;;;13.98;7.97;;;;;;;;;;5839408;28;20089;-80
2024/01/01 03:02:55;;;;;;;16.58;7.72;;;;;;;;;;5838743;28;20415;-80
2024/01/01 03:05:46;;;;;;;14.43;9.02;;;;;;;;;;5840729;28;20056;-80
2024/01/01 03:08:37;;;;;;;15.18;8.13;;;;;;;;;;5839502;28;20333;-80
2024/01/01 03:11:28;;;;;;;12.25;7.82;;;;;;;;;;5838052;28;20042;-80
2024/01/01 03:14:18;;;;;;;16.85;10.43;;;;;;;;;;5830217;28;20057;-80
2024/01/01 03:17:09;;;;;;;29.35;13.35;;;;;;;;;;5821698;28;20056;-80
2024/01/01 03:20:01;;;;;;;23.95;12.60;;;;;;;;;;5838236;28;20069;-80
2024/01/01 03:22:52;;;;;;;24.85;10.18;;;;;;;;;;5854584;28;20096;-80
2024/01/01 03:25:42;;;;;;;32.70;11.57;;;;;;;;;;5860721;28;20045;-80
2024/01/01 03:28:33;;;;;;;21.35;11.30;;;;;;;;;;5860899;28;20052;-80
2024/01/01 03:31:24;;;;;;;24.02;10.10;;;;;;;;;;5860624;28;20516;-80
2024/01/01 03:34:15;;;;;;;31.90;12.45;;;;;;;;;;5860912;28;20045;-80
2024/01/01 03:37:06;;;;;;;15.05;9.75;;;;;;;;;;5860840;28;20046;-81
2024/01/01 03:39:57;;;;;;;27.58;12.13;;;;;;;;;;5861191;28;20168;-80
2024/01/01 03:42:47;;;;;;;27.20;13.38;;;;;;;;;;5861973;28;20038;-80
2024/01/01 03:45:38;;;;;;;16.65;10.50;;;;;;;;;;5860712;28;20057;-80
2024/01/01 03:48:29;;;;;;;13.63;10.50;;;;;;;;;;5860758;28;20048;-80
2024/01/01 03:51:20;;;;;;;15.13;10.82;;;;;;;;;;5860805;28;20041;-80
2024/01/01 03:54:11;;;;;;;19.88;10.95;;;;;;;;;;5862915;28;20488;-81
2024/01/01 03:57:03;;;;;;;20.27;9.95;;;;;;;;;;5848641;28;20049;-80
2024/01/01 03:59:53;;;;;;;15.88;10.43;;;;;;;;;;5865394;28;20049;-81
2024/01/01 04:02:46;;;;;;;15.27;8.95;;;;;;;;;;5864839;28;20047;-80
2024/01/01 04:05:37;;;;;;;20.95;9.07;;;;;;;;;;5866082;28;20048;-80
2024/01/01 04:08:28;;;;;;;21.20;10.32;;;;;;;;;;5881625;28;20045;-81
2024/01/01 04:11:18;;;;;;;40.25;16.25;;;;;;;;;;5864731;28;20049;-80
2024/01/01 04:14:09;;;;;;;20.25;10.32;;;;;;;;;;5881182;28;20495;-80
2024/01/01 04:17:00;;;;;;;22.92;11.18;;;;;;;;;;5865134;28;20099;-80
2024/01/01 04:19:51;;;;;;;23.15;11.70;;;;;;;;;;5849754;28;20128;-80
2024/01/01 04:22:42;;;;;;;13.10;7.85;;;;;;;;;;5841154;28;20061;-81
2024/01/01 04:25:32;;;;;;;12.48;8.95;;;;;;;;;;5841288;28;20045;-80
2024/01/01 04:28:23;;;;;;;19.10;10.32;;;;;;;;;;5841232;28;20046;-80
2024/01/01 04:31:14;;;;;;;24.25;11.38;;;;;;;;;;5842653;28;20145;-80
2024/01/01 04:34:05;;;;;;;16.45;8.85;;;;;;;;;;5857469;28;20048;-81
2024/01/01 04:36:56;;;;;;;18.70;9.43;;;;;;;;;;5841881;28;20049;-80
2024/01/01 04:39:46;;;;;;;15.40;9.38;;;;;;;;;;5842538;28;20038;-81
2024/01/01 04:42:37;;;;;;;12.45;8.98;;;;;;;;;;5842260;28;20042;-80
2024/01/01 04:45:28;;;;;;;12.75;8.73;;;;;;;;;;5842226;28;20085;-81
2024/01/01 04:48:19;;;;;;;10.27;6.50;;;;;;;;;;5841062;28;20061;-80
2024/01/01 04:51:10;;;;;;;25.27;10.85;;;;;;;;;;5842140;28;20625;-80
2024/01/01 04:54:01;;;;;;;13.75;8.48;;;;;;;;;;5840778;28;20068;-80
2024/01/01 04:56:51;;;;;;;21.98;10.50;;;;;;;;;;5841533;28;20061;-80
2024/01/01 04:59:42;;;;;;;21.85;13.38;;;;;;;;;;5840831;28;20056;-80
2024/01/01 05:02:33;;;;;;;25.15;10.85;;;;;;;;;;5841894;28;20048;-81
2024/01/01 05:05:24;;;;;;;34.08;13.20;;;;;;;;;;5840671;28;20526;-80
2024/01/01 05:08:15;;;;;;;26.63;13.75;;;;;;;;;;5840400;28;20057;-80
2024/01/01 05:11:05;;;;;;;24.30;13.38;;;;;;;;;;5840398;28;20045;-80
2024/01/01 05:13:56;;;;;;;28.77;16.08;;;;;;;;;;5824889;28;20055;-81
2024/01/01 05:16:47;;;;;;;24.13;14.73;;;;;;;;;;5840381;28;20042;-80
2024/01/01 05:19:38;;;;;;;28.55;16.83;;;;;;;;;;5840331;28;20125;-81
2024/01/01 05:22:30;;;;;;;32.00;14.23;;;;;;;;;;5856685;28;20049;-81
2024/01/01 05:25:21;;;;;;;43.10;16.50;;;;;;;;;;5824209;28;20050;-81
2024/01/01 05:28:12;;;;;;;37.45;16.67;;;;;;;;;;5840168;28;20049;-80
2024/01/01 05:31:03;;;;;;;19.65;12.77;;;;;;;;;;5841426;28;20052;-79
2024/01/01 05:33:54;;;;;;;21.58;10.02;;;;;;;;;;5841596;28;20084;-80
2024/01/01 05:36:45;;;;;;;12.55;8.27;;;;;;;;;;5839919;28;20097;-80
2024/01/01 05:39:35;;;;;;;12.75;9.13;;;;;;;;;;5844895;28;20037;-80
2024/01/01 05:42:28;;;;;;;21.13;7.82;;;;;;;;;;5862654;28;20060;-80
2024/01/01 05:45:18;;;;;;;9.60;6.40;;;;;;;;;;5879644;28;20055;-81
2024/01/01 05:48:10;;;;;;;12.35;8.80;;;;;;;;;;5864041;28;20053;-80
2024/01/01 05:51:16;;;;;;;11.07;6.88;;;;;;;;;;5862866;28;20452;-80
2024/01/01 05:54:07;;;;;;;21.70;8.93;;;;;;;;;;5862594;28;20466;-81
2024/01/01 05:56:58;;;;;;;12.60;7.78;;;;;;;;;;5879475;28;20419;-81
2024/01/01 05:59:49;;;;;;;11.23;7.00;;;;;;;;;;5862465;28;20256;-80
2024/01/01 06:02:40;;;;;;;10.35;7.68;;;;;;;;;;5862400;28;20057;-81
2024/01/01 06:05:33;;;;;;;15.40;8.07;;;;;;;;;;5862391;28;20512;-81
2024/01/01 06:08:24;;;;;;;8.68;6.82;;;;;;;;;;5862434;28;20045;-80
2024/01/01 06:11:15;;;;;;;12.13;7.57;;;;;;;;;;5862373;28;20147;-80
2024/01/01 06:14:06;;;;;;;12.18;6.80;;;;;;;;;;5863592;28;20404;-80
2024/01/01 06:16:57;;;;;;;14.65;10.18;;;;;;;;;;5862384;28;20053;-81
2024/01/01 06:19:50;;;;;;;15.25;8.68;;;;;;;;;;5862163;28;20046;-81
2024/01/01 06:22:43;;;;;;;14.95;8.20;;;;;;;;;;5863383;28;20041;-80
2024/01/01 06:25:34;;;;;;;16.83;8.55;;;;;;;;;;5862172;28;20041;-81
2024/01/01 06:28:26;;;;;;;15.40;8.52;;;;;;;;;;5862028;28;20051;-81
2024/01/01 06:31:17;;;;;;;23.45;9.75;;;;;;;;;;5863158;28;20041;-81
2024/01/01 06:34:07;;;;;;;10.88;7.60;;;;;;;;;;5862056;28;20049;-81
2024/01/01 06:36:58;;;;;;;9.73;7.68;;;;;;;;;;5863707;28;20120;-81
2024/01/01 06:39:49;;;;;;;13.07;6.97;;;;;;;;;;5862074;28;20041;-81
2024/01/01 06:42:40;;;;;;;14.13;7.22;;;;;;;;;;5862842;28;20049;-81
2024/01/01 06:45:30;;;;;;;14.68;8.07;;;;;;;;;;5878275;28;20049;-80
2024/01/01 06:48:22;;;;;;;10.48;7.35;;;;;;;;;;5861724;28;20053;-80
2024/01/01 06:51:12;;;;;;;20.77;10.98;;;;;;;;;;5861649;28;20176;-80
2024/01/01 06:54:03;;;;;;;19.77;10.10;;;;;;;;;;5861693;28;20153;-81
2024/01/01 06:56:54;;;;;;;11.38;7.90;;;;;;;;;;5862091;28;20072;-81
2024/01/01 06:59:45;;;;;;;22.85;11.55;;;;;;;;;;5861719;28;20471;-81
2024/01/01 07:02:36;;;;;;;14.98;8.10;;;;;;;;;;5862475;28;20106;-81
2024/01/01 07:05:29;;;;;;;14.32;8.18;;;;;;;;;;5862925;28;20547;-81
2024/01/01 07:08:21;;;;;;;12.55;7.60;;;;;;;;;;5845200;28;20077;-80
2024/01/01 07:11:12;;;;;;;10.38;7.28;;;;;;;;;;5861353;28;20049;-80
2024/01/01 07:14:04;;;;;;;9.35;6.47;;;;;;;;;;5861085;28;20050;-80
2024/01/01 07:16:54;;;;;;;13.85;8.18;;;;;;;;;;5878179;28;20056;-81
2024/01/01 07:19:45;;;;;;;12.52;6.40;;;;;;;;;;5877378;28;20049;-81
2024/01/01 07:22:36;;;;;;;9.93;6.97;;;;;;;;;;5860968;28;20046;-80
2024/01/01 07:25:27;;;;;;;14.43;7.05;;;;;;;;;;5862452;28;20072;-80
2024/01/01 07:28:18;;;;;;;10.48;6.60;;;;;;;;;;5861109;28;20056;-80
2024/01/01 07:31:11;;;;;;;21.88;6.07;;;;;;;;;;5865199;28;20060;-80
2024/01/01 07:34:02;;;;;;;12.45;7.47;;;;;;;;;;5849617;28;20068;-79
2024/01/01 07:36:54;;;;;;;11.68;6.43;;;;;;;;;;5866330;28;20052;-80
2024/01/01 07:39:45;;;;;;;16.15;7.45;;;;;;;;;;5866906;28;20045;-79
2024/01/01 07:42:36;;;;;;;11.32;7.93;;;;;;;;;;5866647;28;20041;-79
2024/01/01 07:45:27;;;;;;;10.80;6.95;;;;;;;;;;5865393;28;20048;-79
2024/01/01 07:48:18;;;;;;;28.35;16.20;;;;;;;;;;5866662;28;20049;-79
2024/01/01 07:51:08;;;;;;;25.23;17.08;;;;;;;;;;5865245;28;20496;-79
2024/01/01 07:53:59;;;;;;;17.00;11.38;;;;;;;;;;5866917;28;20064;-79
2024/01/01 07:56:50;;;;;;;10.88;8.60;;;;;;;;;;5843717;28;20061;-79
2024/01/01 07:59:41;;;;;;;14.15;9.70;;;;;;;;;;5842044;28;20038;-79
2024/01/01 08:02:32;;;;;;;12.10;9.00;;;;;;;;;;5843231;28;20060;-79
2024/01/01 08:05:23;;;;;;;21.25;6.30;;;;;;;;;;5842058;28;20045;-79
2024/01/01 08:08:14;;;;;;;12.00;6.18;;;;;;;;;;5843128;28;20046;-79
2024/01/01 08:11:07;;;;;;;9.02;5.65;;;;;;;;;;5841924;28;20570;-78
2024/01/01 08:13:58;;;;;;;6.28;4.72;;;;;;;;;;5842345;28;20089;-78
2024/01/01 08:16:49;;;;;;;9.65;5.88;;;;;;;;;;5841952;28;20046;-78
2024/01/01 08:19:40;;;;;;;6.20;4.38;;;;;;;;;;5841746;28;20451;-78
2024/01/01 08:22:31;;;;;;;10.90;4.63;;;;;;;;;;5841721;28;20042;-78
2024/01/01 08:25:21;;;;;;;4.43;3.83;;;;;;;;;;5841773;28;20041;-78
2024/01/01 08:28:12;;;;;;;11.90;6.80;;;;;;;;;;5841520;28;20049;-78
2024/01/01 08:31:03;;;;;;;18.15;9.00;;;;;;;;;;5841465;28;20459;-78
2024/01/01 08:33:55;;;;;;;9.43;6.30;;;;;;;;;;5857328;28;20045;-78
2024/01/01 08:36:46;;;;;;;11.75;7.65;;;;;;;;;;5864565;28;20053;-78
2024/01/01 08:39:37;;;;;;;21.35;12.13;;;;;;;;;;5863994;28;20042;-78
2024/01/01 08:42:28;;;;;;;22.08;12.23;;;;;;;;;;5865572;28;20128;-78
2024/01/01 08:45:21;;;;;;;9.75;6.35;;;;;;;;;;5864334;28;20392;-78
2024/01/01 08:48:12;;;;;;;19.38;8.50;;;;;;;;;;5848150;28;20054;-78
2024/01/01 08:51:03;;;;;;;6.68;4.97;;;;;;;;;;5864293;28;20056;-78
2024/01/01 08:53:55;;;;;;;7.03;3.17;;;;;;;;;;5865963;28;20076;-78
2024/01/01 08:56:46;;;;;;;2.75;2.55;;;;;;;;;;5864215;28;20072;-78
2024/01/01 08:59:39;;;;;;;4.20;2.20;;;;;;;;;;5865357;28;20507;-78
2024/01/01 09:02:30;;;;;;;4.28;3.35;;;;;;;;;;5865351;28;20057;-78
2024/01/01 09:05:20;;;;;;;3.20;1.52;;;;;;;;;;5863828;28;20144;-78
2024/01/01 09:08:11;;;;;;;4.55;4.07;;;;;;;;;;5865123;28;20057;-78
2024/01/01 09:11:03;;;;;;;2.58;2.08;;;;;;;;;;5865218;28;20053;-78
2024/01/01 09:13:54;;;;;;;2.58;2.38;;;;;;;;;;5865678;28;20049;-78
2024/01/01 09:16:46;;;;;;;5.43;2.97;;;;;;;;;;5865080;28;20052;-78
2024/01/01 09:19:40;;;;;;;4.75;4.30;;;;;;;;;;5863839;28;20100;-78
2024/01/01 09:22:31;;;;;;;14.15;7.32;;;;;;;;;;5863604;28;20185;-78
2024/01/01 09:25:22;;;;;;;8.40;4.57;;;;;;;;;;5865433;28;20505;-78
2024/01/01 09:28:12;;;;;;;3.13;2.33;;;;;;;;;;5880075;28;20060;-78
2024/01/01 09:31:03;;;;;;;6.68;2.45;;;;;;;;;;5879922;28;20050;-77
2024/01/01 09:33:54;;;;;;;3.95;2.10;;;;;;;;;;5864892;28;20037;-77
2024/01/01 09:36:45;;;;;;;4.10;1.98;;;;;;;;;;5863165;28;20053;-78
2024/01/01 09:39:51;;;;;;;5.15;2.55;;;;;;;;;;5878248;28;20052;-77
2024/01/01 09:42:48;;;;;;;2.13;1.95;;;;;;;;;;5864458;28;20420;-77
2024/01/01 09:45:39;;;;;;;4.00;2.15;;;;;;;;;;5862911;28;20407;-78
2024/01/01 09:48:30;;;;;;;0.85;0.82;;;;;;;;;;5879555;28;20545;-78
2024/01/01 09:51:21;;;;;;;1.45;1.35;;;;;;;;;;5863812;28;20593;-78
2024/01/01 09:54:11;;;;;;;0.98;0.82;;;;;;;;;;5862700;28;20050;-78
2024/01/01 09:57:03;;;;;;;0.93;0.93;;;;;;;;;;5864217;28;20415;-79
2024/01/01 09:59:54;;;;;;;1.40;0.98;;;;;;;;;;5864582;28;20048;-78
2024/01/01 10:02:45;;;;;;;0.88;0.70;;;;;;;;;;5862554;28;20052;-77
2024/01/01 10:05:40;;;;;;;1.45;1.33;;;;;;;;;;5863885;28;20052;-78
2024/01/01 10:08:31;;;;;;;2.83;0.95;;;;;;;;;;5846249;28;20045;-78
2024/01/01 10:11:22;;;;;;;1.08;1.00;;;;;;;;;;5862446;28;20741;-78
2024/01/01 10:14:13;;;;;;;7.57;1.35;;;;;;;;;;5863658;28;20069;-78
2024/01/01 10:17:12;;;;;;;1.63;1.45;;;;;;;;;;5862846;28;20179;-78
2024/01/01 10:20:03;;;;;;;0.77;0.77;;;;;;;;;;5864797;28;20046;-78
2024/01/01 10:22:54;;;;;;;1.17;1.00;;;;;;;;;;5862528;28;20121;-78
2024/01/01 10:25:44;;;;;;;1.25;0.90;;;;;;;;;;5878750;28;20041;-77
2024/01/01 10:28:35;;;;;;;2.75;0.52;;;;;;;;;;5862168;28;20038;-78
2024/01/01 10:31:26;;;;;;;0.80;0.80;;;;;;;;;;5863668;28;20056;-78
2024/01/01 10:34:18;;;;;;;1.63;1.25;;;;;;;;;;5862024;28;20049;-78
2024/01/01 10:37:09;;;;;;;2.60;1.17;;;;;;;;;;5863478;28;20049;-78
2024/01/01 10:40:05;;;;;;;1.40;1.30;;;;;;;;;;5863710;28;20049;-78
2024/01/01 10:42:58;;;;;;;3.45;1.38;;;;;;;;;;5862103;28;20041;-77
2024/01/01 10:45:50;;;;;;;1.65;1.48;;;;;;;;;;5863236;28;20435;-77
2024/01/01 10:48:43;;;;;;;6.20;4.18;;;;;;;;;;5861801;28;20052;-78
2024/01/01 10:51:43;;;;;;;5.68;3.55;;;;;;;;;;5861729;28;20060;-78
2024/01/01 10:55:01;;;;;;;3.03;2.58;;;;;;;;;;5863043;28;20045;-78
2024/01/01 10:58:10;;;;;;;3.90;2.67;;;;;;;;;;5863089;28;20057;-78
2024/01/01 11:01:19;;;;;;;32.70;3.42;;;;;;;;;;5862584;28;20407;-78
2024/01/01 11:04:15;;;;;;;;;;;;;;;;;;5863145;28;20404;-79
2024/01/01 11:07:06;;;;;;;6.05;2.97;;;;;;;;;;5877774;28;19925;-78
2024/01/01 11:09:57;;;;;;;6.38;4.10;;;;;;;;;;5863072;28;20046;-78
2024/01/01 11:12:47;;;;;;;5.47;2.97;;;;;;;;;;5861378;28;20041;-78
2024/01/01 11:15:48;;;;;;;8.90;3.13;;;;;;;;;;5861266;28;20041;-78
2024/01/01 11:18:39;;;;;;;4.63;3.47;;;;;;;;;;5861224;28;20399;-78
2024/01/01 11:21:33;;;;;;;9.68;6.32;;;;;;;;;;5862543;28;20171;-78
2024/01/01 11:24:42;;;;;;;17.27;5.90;;;;;;;;;;5862428;28;20064;-78
2024/01/01 11:27:47;;;;;;;17.60;7.25;;;;;;;;;;5877694;28;20092;-78
2024/01/01 11:30:39;;;;;;;6.30;3.75;;;;;;;;;;5844695;28;20072;-78
2024/01/01 11:33:31;;;;;;;6.68;3.55;;;;;;;;;;5844882;28;20045;-79
2024/01/01 11:36:22;;;;;;;9.70;6.82;;;;;;;;;;5861108;28;20433;-78
2024/01/01 11:39:16;;;;;;;22.60;9.57;;;;;;;;;;5861203;28;20499;-79
2024/01/01 11:42:07;;;;;;;17.63;11.80;;;;;;;;;;5860917;28;20057;-79
2024/01/01 11:45:11;;;;;;;23.30;11.73;;;;;;;;;;5878157;28;20045;-79
2024/01/01 11:48:05;;;;;;;14.63;9.95;;;;;;;;;;5861049;28;20422;-79
2024/01/01 11:50:59;;;;;;;13.23;9.63;;;;;;;;;;5862738;28;20504;-79
2024/01/01 11:54:10;;;;;;;17.80;8.45;;;;;;;;;;5862171;28;20048;-79
2024/01/01 11:57:01;;;;;;;16.70;9.93;;;;;;;;;;5870565;28;20045;-79
2024/01/01 11:59:52;;;;;;;27.20;12.63;;;;;;;;;;5861470;28;20054;-79
2024/01/01 12:02:43;;;;;;;23.10;10.18;;;;;;;;;;5860941;28;20056;-79
2024/01/01 12:05:34;;;;;;;20.48;12.18;;;;;;;;;;5860847;28;20046;-79
2024/01/01 12:08:25;;;;;;;24.55;11.77;;;;;;;;;;5862213;28;20462;-79
2024/01/01 12:11:17;;;;;;;24.70;12.40;;;;;;;;;;5861940;28;20112;-79
2024/01/01 12:14:09;;;;;;;26.00;12.80;;;;;;;;;;5877068;28;20123;-79
2024/01/01 12:17:04;;;;;;;17.98;7.38;;;;;;;;;;5864863;28;20055;-79
2024/01/01 12:19:59;;;;;;;19.02;10.82;;;;;;;;;;5866607;28;20068;-78
2024/01/01 12:22:52;;;;;;;15.55;9.07;;;;;;;;;;5881636;28;20041;-79
2024/01/01 12:25:45;;;;;;;15.23;9.13;;;;;;;;;;5865201;28;20419;-78
2024/01/01 12:28:39;;;;;;;21.98;8.75;;;;;;;;;;5865060;28;20069;-79
2024/01/01 12:31:30;;;;;;;17.83;8.70;;;;;;;;;;5866070;28;20053;-78
2024/01/01 12:34:20;;;;;;;16.73;7.78;;;;;;;;;;5864557;28;20155;-79
2024/01/01 12:37:11;;;;;;;18.33;13.32;;;;;;;;;;5865907;28;20419;-79
2024/01/01 12:40:02;;;;;;;14.25;7.72;;;;;;;;;;5865877;28;20054;-79
2024/01/01 12:42:53;;;;;;;21.95;8.38;;;;;;;;;;5849487;28;20042;-78
2024/01/01 12:45:43;;;;;;;13.63;10.05;;;;;;;;;;5863421;28;20045;-79
2024/01/01 12:48:35;;;;;;;20.10;10.70;;;;;;;;;;5864516;28;20048;-79
2024/01/01 12:51:28;;;;;;;15.63;9.95;;;;;;;;;;5864037;28;20045;-78
2024/01/01 12:54:19;;;;;;;18.30;9.88;;;;;;;;;;5847894;28;20050;-78
2024/01/01 12:57:10;;;;;;;15.10;9.55;;;;;;;;;;5847849;28;20451;-78
2024/01/01 13:00:01;;;;;;;14.32;8.48;;;;;;;;;;5865679;28;20056;-78
2024/01/01 13:02:52;;;;;;;14.75;8.95;;;;;;;;;;5841034;28;20061;-78
2024/01/01 13:05:43;;;;;;;13.18;8.10;;;;;;;;;;5842269;28;20045;-78
2024/01/01 13:08:37;;;;;;;15.60;7.90;;;;;;;;;;5842260;28;20120;-78
2024/01/01 13:11:28;;;;;;;15.15;11.90;;;;;;;;;;5842173;28;20164;-78
2024/01/01 13:14:19;;;;;;;21.90;14.00;;;;;;;;;;5840709;28;20483;-78
2024/01/01 13:17:10;;;;;;;13.27;9.32;;;;;;;;;;5840678;28;20136;-78
2024/01/01 13:20:01;;;;;;;33.08;15.52;;;;;;;;;;5840617;28;20053;-78
2024/01/01 13:22:52;;;;;;;19.70;11.95;;;;;;;;;;5865305;28;20131;-78
2024/01/01 13:25:47;;;;;;;13.45;8.95;;;;;;;;;;5863533;28;20553;-78
2024/01/01 13:28:42;;;;;;;23.58;8.77;;;;;;;;;;5878502;28;20053;-78
2024/01/01 13:31:32;;;;;;;11.77;7.35;;;;;;;;;;5863169;28;20111;-78
2024/01/01 13:34:23;;;;;;;26.17;7.90;;;;;;;;;;5863210;28;20406;-78
2024/01/01 13:37:14;;;;;;;29.13;12.13;;;;;;;;;;5863295;28;20072;-80
2024/01/01 13:40:06;;;;;;;38.25;22.70;;;;;;;;;;5863058;28;20064;-81
2024/01/01 13:42:57;;;;;;;40.65;22.58;;;;;;;;;;5863439;28;20052;-80
2024/01/01 13:45:48;;;;;;;26.75;14.68;;;;;;;;;;5862983;28;20075;-80
2024/01/01 13:48:38;;;;;;;22.48;10.77;;;;;;;;;;5879456;28;20045;-80
2024/01/01 13:51:29;;;;;;;28.27;13.98;;;;;;;;;;5862867;28;20552;-80
2024/01/01 13:54:20;;;;;;;26.85;15.50;;;;;;;;;;5863051;28;20053;-80
2024/01/01 13:57:12;;;;;;;23.52;11.73;;;;;;;;;;5864010;28;20053;-80
2024/01/01 14:00:08;;;;;;;14.60;8.80;;;;;;;;;;5863885;28;20088;-80
2024/01/01 14:02:59;;;;;;;16.50;9.13;;;;;;;;;;5864290;28;20049;-80
2024/01/01 14:05:49;;;;;;;17.88;9.80;;;;;;;;;;5862744;28;20124;-80
2024/01/01 14:08:40;;;;;;;12.75;9.43;;;;;;;;;;5862323;28;20103;-80
2024/01/01 14:11:35;;;;;;;18.48;11.05;;;;;;;;;;5862901;28;20049;-79
2024/01/01 14:14:26;;;;;;;16.88;7.78;;;;;;;;;;5863890;28;20912;-80
2024/01/01 14:17:16;;;;;;;17.88;9.50;;;;;;;;;;5862609;28;20423;-80
2024/01/01 14:20:09;;;;;;;18.27;9.43;;;;;;;;;;5862208;28;20068;-80
2024/01/01 14:23:00;;;;;;;13.32;9.40;;;;;;;;;;5862376;28;20049;-80
2024/01/01 14:25:51;;;;;;;15.90;9.18;;;;;;;;;;5879155;28;20144;-80
2024/01/01 14:28:42;;;;;;;19.02;11.50;;;;;;;;;;5862090;28;20559;-80
2024/01/01 14:31:32;;;;;;;19.98;11.93;;;;;;;;;;5863231;28;20515;-80
2024/01/01 14:34:24;;;;;;;24.73;10.23;;;;;;;;;;5861941;28;20053;-80
2024/01/01 14:37:14;;;;;;;11.98;7.38;;;;;;;;;;5861977;28;20042;-79
2024/01/01 14:40:06;;;;;;;12.43;7.13;;;;;;;;;;5861527;28;20056;-80
2024/01/01 14:42:57;;;;;;;11.68;8.18;;;;;;;;;;5862099;28;20423;-80
2024/01/01 14:45:48;;;;;;;13.93;7.05;;;;;;;;;;5861465;28;20053;-77
2024/01/01 14:48:39;;;;;;;11.48;6.38;;;;;;;;;;5861365;28;20060;-77
2024/01/01 14:51:30;;;;;;;10.55;6.68;;;;;;;;;;5845135;28;20046;-77
2024/01/01 14:54:22;;;;;;;15.88;10.60;;;;;;;;;;5862776;28;20743;-78
2024/01/01 14:57:12;;;;;;;17.83;10.20;;;;;;;;;;5863078;28;20524;-77
2024/01/01 15:00:05;;;;;;;9.32;8.30;;;;;;;;;;5863497;28;20057;-77
2024/01/01 15:02:56;;;;;;;10.95;7.70;;;;;;;;;;5862623;28;20068;-77
2024/01/01 15:05:47;;;;;;;7.93;6.70;;;;;;;;;;5861709;28;20442;-77
2024/01/01 15:08:38;;;;;;;10.52;8.27;;;;;;;;;;5877819;28;20154;-77
2024/01/01 15:11:29;;;;;;;13.73;9.20;;;;;;;;;;5863421;28;20056;-77
2024/01/01 15:14:20;;;;;;;12.18;8.38;;;;;;;;;;5863634;28;20073;-77
2024/01/01 15:17:12;;;;;;;13.45;8.40;;;;;;;;;;5863499;28;20128;-77
2024/01/01 15:20:06;;;;;;;13.73;7.38;;;;;;;;;;5863307;28;20052;-77
2024/01/01 15:22:57;;;;;;;14.65;10.32;;;;;;;;;;5863206;28;20475;-77
2024/01/01 15:25:48;;;;;;;15.75;8.02;;;;;;;;;;5861160;28;20060;-77
2024/01/01 15:28:40;;;;;;;10.82;8.00;;;;;;;;;;5861045;28;20077;-77
2024/01/01 15:31:32;;;;;;;19.60;8.80;;;;;;;;;;5877480;28;20041;-77
2024/01/01 15:34:22;;;;;;;25.70;15.40;;;;;;;;;;5862971;28;20057;-77
2024/01/01 15:37:13;;;;;;;23.80;17.42;;;;;;;;;;5863096;28;20099;-77
2024/01/01 15:40:06;;;;;;;17.70;11.38;;;;;;;;;;5862044;28;20053;-77
2024/01/01 15:42:57;;;;;;;17.10;10.43;;;;;;;;;;5863088;28;20119;-77
2024/01/01 15:45:48;;;;;;;15.98;8.05;;;;;;;;;;5861266;28;20067;-77
2024/01/01 15:48:39;;;;;;;24.08;9.63;;;;;;;;;;5862733;28;20509;-77
2024/01/01 15:51:30;;;;;;;13.20;7.97;;;;;;;;;;5880523;28;20453;-77
2024/01/01 15:54:30;;;;;;;7.22;5.32;;;;;;;;;;5866270;28;20041;-77
2024/01/01 15:57:28;;;;;;;9.83;7.03;;;;;;;;;;5866013;28;20045;-77
2024/01/01 16:00:19;;;;;;;9.10;5.63;;;;;;;;;;5865492;28;20296;-77
2024/01/01 16:03:10;;;;;;;7.15;5.30;;;;;;;;;;5865382;28;20053;-77
2024/01/01 16:06:01;;;;;;;21.95;10.80;;;;;;;;;;5866918;28;20052;-77
2024/01/01 16:08:52;;;;;;;16.42;7.80;;;;;;;;;;5882546;28;20521;-77
2024/01/01 16:11:42;;;;;;;14.70;8.13;;;;;;;;;;5867205;28;20053;-77
2024/01/01 16:14:33;;;;;;;17.40;12.00;;;;;;;;;;5866889;28;20411;-77
2024/01/01 16:17:24;;;;;;;25.05;8.75;;;;;;;;;;5865054;28;20041;-77
2024/01/01 16:20:15;;;;;;;12.10;8.85;;;;;;;;;;5864850;28;20045;-78
2024/01/01 16:23:06;;;;;;;10.55;9.30;;;;;;;;;;5864804;28;20053;-77
2024/01/01 16:25:57;;;;;;;12.57;8.07;;;;;;;;;;5849325;28;20512;-77
2024/01/01 16:28:48;;;;;;;12.80;8.82;;;;;;;;;;5866079;28;20037;-77
2024/01/01 16:31:39;;;;;;;18.77;10.05;;;;;;;;;;5866033;28;20045;-77
2024/01/01 16:34:30;;;;;;;27.10;12.38;;;;;;;;;;5864748;28;20045;-77
2024/01/01 16:37:21;;;;;;;15.20;10.73;;;;;;;;;;5881161;28;20059;-77
2024/01/01 16:40:12;;;;;;;12.85;9.40;;;;;;;;;;5866035;28;20049;-77
2024/01/01 16:43:03;;;;;;;20.23;13.20;;;;;;;;;;5866408;28;20461;-77
2024/01/01 16:45:54;;;;;;;18.15;10.88;;;;;;;;;;5866090;28;20046;-77
2024/01/01 16:48:44;;;;;;;16.98;10.45;;;;;;;;;;5880809;28;20049;-77
2024/01/01 16:51:39;;;;;;;17.48;12.18;;;;;;;;;;5865436;28;20121;-77
2024/01/01 16:54:31;;;;;;;20.40;12.32;;;;;;;;;;5865480;28;20411;-77